createdAt,value
2022-08-20T00:02:15.154Z,100232.12
2022-08-20T00:04:43.931Z,100234.66
2022-08-20T00:07:12.187Z,100225.03
2022-08-20T00:09:41.567Z,100213.31
2022-08-20T00:12:13.541Z,100217.78
2022-08-20T00:14:41.798Z,100214.03
2022-08-20T00:17:10.208Z,100220.31
2022-08-20T00:19:38.099Z,100217.97
2022-08-20T00:22:06.498Z,100214.03
2022-08-20T00:24:34.991Z,100210.31
2022-08-20T00:27:03.415Z,100204.53
2022-08-20T00:29:33.316Z,100212.31
2022-08-20T00:32:01.679Z,100208.75
2022-08-20T00:34:30.285Z,100207.72
2022-08-20T00:36:58.230Z,100224.16
2022-08-20T00:39:26.627Z,100218.94
2022-08-20T00:41:54.576Z,100219.97
2022-08-20T00:44:23.481Z,100224.53
2022-08-20T00:46:54.430Z,100224.69
2022-08-20T00:49:25.844Z,100217.59
2022-08-20T00:51:58.918Z,100220.69
2022-08-20T00:54:32.347Z,100216.50
2022-08-20T00:57:04.550Z,100225.66
2022-08-20T00:59:35.357Z,100227.88
2022-08-20T01:02:08.366Z,100233.50
2022-08-20T01:04:38.382Z,100230.97
2022-08-20T01:07:08.323Z,100243.69
2022-08-20T01:09:57.794Z,100246.38
2022-08-20T01:12:28.310Z,100246.59
2022-08-20T01:14:56.944Z,100247.63
2022-08-20T01:17:29.075Z,100242.72
2022-08-20T01:20:01.863Z,100236.66
2022-08-20T01:22:57.731Z,100237.03
2022-08-20T01:25:33.817Z,100233.31
2022-08-20T01:28:03.935Z,100235.38
2022-08-20T01:30:33.636Z,100237.37
2022-08-20T01:33:02.524Z,100227.31
2022-08-20T01:35:30.715Z,100224.88
2022-08-20T01:37:59.207Z,100215.72
2022-08-20T01:40:45.393Z,100220.78
2022-08-20T01:43:15.804Z,100221.62
2022-08-20T01:45:45.441Z,100224.03
2022-08-20T01:48:18.025Z,100228.59
2022-08-20T01:50:55.388Z,100223.19
2022-08-20T01:53:29.709Z,100218.41
2022-08-20T01:55:57.714Z,100220.28
2022-08-20T01:58:29.776Z,100219.44
2022-08-20T02:00:58.447Z,100217.44
2022-08-20T02:03:26.644Z,100219.09
2022-08-20T02:05:54.883Z,100217.44
2022-08-20T02:08:23.028Z,100221.97
2022-08-20T02:10:50.958Z,100225.72
2022-08-20T02:13:19.156Z,100222.16
2022-08-20T02:15:48.369Z,100233.00
2022-08-20T02:18:16.902Z,100232.16
2022-08-20T02:20:45.981Z,100233.37
2022-08-20T02:23:15.576Z,100238.16
2022-08-20T02:25:47.355Z,100232.06
2022-08-20T02:28:20.645Z,100233.94
2022-08-20T02:30:53.137Z,100236.16
2022-08-20T02:33:24.669Z,100243.00
2022-08-20T02:35:56.963Z,100247.06
2022-08-20T02:38:25.811Z,100252.50
2022-08-20T02:40:53.916Z,100247.63
2022-08-20T02:43:21.879Z,100249.19
2022-08-20T02:45:51.609Z,100252.62
2022-08-20T02:48:22.982Z,100251.28
2022-08-20T02:50:55.643Z,100242.50
2022-08-20T02:53:24.483Z,100253.97
2022-08-20T02:55:53.383Z,100251.13
2022-08-20T02:58:22.734Z,100251.13
2022-08-20T03:00:53.023Z,100248.75
2022-08-20T03:03:22.693Z,100256.03
2022-08-20T03:05:54.399Z,100255.38
2022-08-20T03:08:22.729Z,100261.81
2022-08-20T03:10:52.835Z,100259.84
2022-08-20T03:13:21.769Z,100268.97
2022-08-20T03:15:58.420Z,100263.94
2022-08-20T03:18:29.221Z,100262.91
2022-08-20T03:20:57.819Z,100273.56
2022-08-20T03:23:26.120Z,100272.53
2022-08-20T03:25:54.071Z,100266.94
2022-08-20T03:28:22.315Z,100274.91
2022-08-20T03:30:51.335Z,100272.00
2022-08-20T03:33:21.430Z,100272.00
2022-08-20T03:35:49.665Z,100265.91
2022-08-20T03:38:20.717Z,100262.34
2022-08-20T03:41:00.833Z,100262.53
2022-08-20T03:43:29.519Z,100257.69
2022-08-20T03:45:57.624Z,100260.56
2022-08-20T03:48:27.307Z,100256.91
2022-08-20T03:50:57.567Z,100258.28
2022-08-20T03:53:25.711Z,100250.16
2022-08-20T03:55:59.261Z,100251.16
2022-08-20T03:58:35.284Z,100253.87
2022-08-20T04:01:06.804Z,100257.31
2022-08-20T04:03:36.562Z,100261.66
2022-08-20T04:06:05.153Z,100261.16
2022-08-20T04:08:33.188Z,100263.69
2022-08-20T04:11:01.908Z,100263.34
2022-08-20T04:13:31.359Z,100263.69
2022-08-20T04:16:03.529Z,100256.56
2022-08-20T04:18:32.516Z,100251.16
2022-08-20T04:21:01.806Z,100249.78
2022-08-20T04:23:30.076Z,100248.13
2022-08-20T04:25:58.464Z,100252.12
2022-08-20T04:28:28.310Z,100253.09
2022-08-20T04:30:58.393Z,100259.84
2022-08-20T04:33:35.112Z,100261.03
2022-08-20T04:36:06.872Z,100260.94
2022-08-20T04:38:49.817Z,100261.72
2022-08-20T04:41:22.919Z,100262.41
2022-08-20T04:43:52.975Z,100265.13
2022-08-20T04:46:22.461Z,100264.28
2022-08-20T04:48:50.727Z,100266.16
2022-08-20T04:51:23.056Z,100264.78
2022-08-20T04:53:53.806Z,100263.75
2022-08-20T04:56:24.145Z,100281.03
2022-08-20T04:58:53.773Z,100274.78
2022-08-20T05:01:23.818Z,100281.88
2022-08-20T05:03:54.736Z,100288.47
2022-08-20T05:06:28.507Z,100281.69
2022-08-20T05:08:59.139Z,100289.81
2022-08-20T05:11:34.324Z,100291.87
2022-08-20T05:14:07.840Z,100297.28
2022-08-20T05:16:40.306Z,100294.41
2022-08-20T05:19:10.298Z,100291.50
2022-08-20T05:21:39.644Z,100300.12
2022-08-20T05:24:08.007Z,100292.00
2022-08-20T05:26:36.482Z,100306.00
2022-08-20T05:29:06.735Z,100301.75
2022-08-20T05:31:35.610Z,100292.72
2022-08-20T05:34:09.703Z,100297.94
2022-08-20T05:36:40.640Z,100303.66
2022-08-20T05:39:10.103Z,100301.25
2022-08-20T05:41:38.714Z,100305.81
2022-08-20T05:44:09.947Z,100295.06
2022-08-20T05:46:40.410Z,100304.34
2022-08-20T05:49:08.867Z,100301.25
2022-08-20T05:51:37.768Z,100306.59
2022-08-20T05:54:08.088Z,100317.06
2022-08-20T05:56:37.666Z,100311.59
2022-08-20T05:59:07.919Z,100318.28
2022-08-20T06:01:38.661Z,100318.41
2022-08-20T06:04:25.292Z,100309.59
2022-08-20T06:06:55.074Z,100315.34
2022-08-20T06:09:31.185Z,100314.00
2022-08-20T06:12:02.301Z,100317.38
2022-08-20T06:14:30.895Z,100316.34
2022-08-20T06:17:04.882Z,100325.50
2022-08-20T06:19:34.606Z,100313.47
2022-08-20T06:22:17.892Z,100317.66
2022-08-20T06:24:55.072Z,100321.06
2022-08-20T06:27:23.381Z,100315.63
2022-08-20T06:29:53.313Z,100319.34
2022-08-20T06:32:32.362Z,100319.00
2022-08-20T06:35:02.358Z,100321.06
2022-08-20T06:37:32.796Z,100324.78
2022-08-20T06:40:04.530Z,100323.59
2022-08-20T06:42:32.624Z,100323.41
2022-08-20T06:45:03.184Z,100326.09
2022-08-20T06:47:31.581Z,100329.84
2022-08-20T06:49:59.434Z,100329.19
2022-08-20T06:52:37.766Z,100323.47
2022-08-20T06:55:17.996Z,100320.44
2022-08-20T06:57:47.804Z,100322.03
2022-08-20T07:00:18.706Z,100328.09
2022-08-20T07:02:48.102Z,100322.97
2022-08-20T07:05:16.659Z,100330.56
2022-08-20T07:07:45.867Z,100340.59
2022-08-20T07:10:17.832Z,100343.75
2022-08-20T07:12:46.876Z,100354.44
2022-08-20T07:15:15.691Z,100353.59
2022-08-20T07:17:43.778Z,100352.37
2022-08-20T07:20:15.337Z,100361.16
2022-08-20T07:22:44.220Z,100362.66
2022-08-20T07:25:15.421Z,100368.94
2022-08-20T07:27:46.383Z,100367.25
2022-08-20T07:30:56.703Z,100377.91
2022-08-20T07:33:23.097Z,100379.97
2022-08-20T07:35:51.373Z,100384.81
2022-08-20T07:38:24.080Z,100383.44
2022-08-20T07:40:53.774Z,100381.19
2022-08-20T07:43:24.111Z,100389.13
2022-08-20T07:45:55.571Z,100388.75
2022-08-20T07:48:28.013Z,100387.72
2022-08-20T07:51:01.926Z,100395.50
2022-08-20T07:53:34.841Z,100396.81
2022-08-20T07:56:05.904Z,100393.91
2022-08-20T07:58:36.832Z,100397.66
2022-08-20T08:01:05.617Z,100395.78
2022-08-20T08:03:39.462Z,100395.50
2022-08-20T08:06:28.746Z,100407.47
2022-08-20T08:09:00.344Z,100399.84
2022-08-20T08:11:28.301Z,100406.19
2022-08-20T08:13:57.549Z,100410.88
2022-08-20T08:18:56.732Z,100403.50
2022-08-20T08:21:26.281Z,100407.31
2022-08-20T08:23:55.033Z,100401.81
2022-08-20T08:26:23.040Z,100402.97
2022-08-20T08:28:51.978Z,100398.66
2022-08-20T08:31:21.417Z,100400.22
2022-08-20T08:33:49.319Z,100407.25
2022-08-20T08:36:17.640Z,100405.28
2022-08-20T08:38:46.576Z,100404.53
2022-08-20T08:41:20.669Z,100398.12
2022-08-20T08:43:53.256Z,100398.00
2022-08-20T08:46:26.989Z,100398.28
2022-08-20T08:48:58.765Z,100398.38
2022-08-20T08:51:33.761Z,100406.34
2022-08-20T08:54:06.658Z,100401.38
2022-08-20T08:56:36.167Z,100405.97
2022-08-20T08:59:08.563Z,100411.78
2022-08-20T09:01:54.054Z,100408.88
2022-08-20T09:04:28.451Z,100413.31
2022-08-20T09:06:56.400Z,100415.28
2022-08-20T09:09:28.676Z,100418.28
2022-08-20T09:12:06.479Z,100425.00
2022-08-20T09:14:34.997Z,100417.09
2022-08-20T09:17:08.156Z,100423.78
2022-08-20T09:19:36.506Z,100422.94
2022-08-20T09:22:08.642Z,100424.41
2022-08-20T09:24:37.093Z,100424.03
2022-08-20T09:27:05.506Z,100417.16
2022-08-20T09:29:35.538Z,100422.03
2022-08-20T09:32:10.757Z,100423.13
2022-08-20T09:34:39.428Z,100422.16
2022-08-20T09:37:07.771Z,100411.91
2022-08-20T09:39:36.054Z,100414.78
2022-08-20T09:42:09.003Z,100410.03
2022-08-20T09:44:37.167Z,100418.53
2022-08-20T09:47:05.273Z,100420.37
2022-08-20T09:49:34.662Z,100413.06
2022-08-20T09:52:04.014Z,100416.66
2022-08-20T09:54:33.766Z,100413.16
2022-08-20T09:57:06.155Z,100415.94
2022-08-20T09:59:35.951Z,100420.22
2022-08-20T10:02:05.000Z,100426.09
2022-08-20T10:04:34.635Z,100419.16
2022-08-20T10:07:02.551Z,100420.63
2022-08-20T10:09:30.415Z,100425.47
2022-08-20T10:11:58.512Z,100422.88
2022-08-20T10:14:26.572Z,100422.50
2022-08-20T10:16:59.822Z,100428.84
2022-08-20T10:19:30.090Z,100424.50
2022-08-20T10:22:00.024Z,100430.41
2022-08-20T10:24:28.603Z,100422.28
2022-08-20T10:26:58.615Z,100417.06
2022-08-20T10:29:27.611Z,100422.31
2022-08-20T10:31:57.845Z,100424.19
2022-08-20T10:34:26.708Z,100426.25
2022-08-20T10:36:54.648Z,100419.56
2022-08-20T10:39:24.150Z,100424.81
2022-08-20T10:41:52.107Z,100422.34
2022-08-20T10:44:19.996Z,100421.75
2022-08-20T10:46:48.217Z,100416.09
2022-08-20T10:49:16.120Z,100414.84
2022-08-20T10:51:44.104Z,100418.06
2022-08-20T10:54:12.418Z,100412.81
2022-08-20T10:56:42.703Z,100415.91
2022-08-20T10:59:10.713Z,100420.37
2022-08-20T11:01:38.882Z,100418.72
2022-08-20T11:04:06.826Z,100425.66
2022-08-20T11:06:34.698Z,100425.28
2022-08-20T11:09:02.827Z,100428.62
2022-08-20T11:11:30.776Z,100436.22
2022-08-20T11:14:00.285Z,100437.06
2022-08-20T11:16:28.462Z,100430.13
2022-08-20T11:18:56.328Z,100433.69
2022-08-20T11:21:24.259Z,100439.41
2022-08-20T11:23:52.439Z,100442.38
2022-08-20T11:26:24.134Z,100443.41
2022-08-20T11:28:52.549Z,100444.06
2022-08-20T11:31:21.767Z,100437.75
2022-08-20T11:33:49.678Z,100445.56
2022-08-20T11:36:17.874Z,100441.97
2022-08-20T11:38:45.713Z,100443.25
2022-08-20T11:41:13.822Z,100437.97
2022-08-20T11:43:51.151Z,100446.38
2022-08-20T11:46:28.994Z,100447.84
2022-08-20T11:48:57.077Z,100440.69
2022-08-20T11:51:25.012Z,100448.47
2022-08-20T11:53:52.927Z,100447.41
2022-08-20T11:56:21.511Z,100448.00
2022-08-20T11:58:49.487Z,100443.16
2022-08-20T12:01:17.472Z,100448.22
2022-08-20T12:03:47.008Z,100445.03
2022-08-20T12:06:15.069Z,100446.91
2022-08-20T12:08:43.082Z,100444.13
2022-08-20T12:11:11.370Z,100442.84
2022-08-20T12:13:47.989Z,100438.88
2022-08-20T12:16:17.543Z,100442.22
2022-08-20T12:18:47.718Z,100438.44
2022-08-20T12:21:15.911Z,100440.56
2022-08-20T12:23:44.323Z,100436.75
2022-08-20T12:26:12.380Z,100428.34
2022-08-20T12:28:40.597Z,100429.63
2022-08-20T12:31:08.829Z,100424.16
2022-08-20T12:33:36.703Z,100418.84
2022-08-20T12:36:06.506Z,100438.13
2022-08-20T12:38:36.297Z,100428.06
2022-08-20T12:41:04.622Z,100429.16
2022-08-20T12:43:32.479Z,100430.50
2022-08-20T12:46:00.576Z,100429.25
2022-08-20T12:48:28.485Z,100425.81
2022-08-20T12:50:56.818Z,100425.81
2022-08-20T12:53:26.244Z,100427.78
2022-08-20T12:55:54.099Z,100437.09
2022-08-20T12:58:21.989Z,100437.28
2022-08-20T13:00:50.532Z,100442.56
2022-08-20T13:03:20.366Z,100442.16
2022-08-20T13:05:49.569Z,100438.00
2022-08-20T13:08:20.859Z,100435.25
2022-08-20T13:10:50.224Z,100430.63
2022-08-20T13:13:20.515Z,100434.41
2022-08-20T13:15:49.785Z,100439.00
2022-08-20T13:18:17.836Z,100434.75
2022-08-20T13:20:46.317Z,100435.03
2022-08-20T13:23:14.256Z,100439.28
2022-08-20T13:25:42.366Z,100426.31
2022-08-20T13:28:11.896Z,100436.00
2022-08-20T13:30:41.287Z,100437.66
2022-08-20T13:33:09.235Z,100437.69
2022-08-20T13:35:37.542Z,100437.25
2022-08-20T13:38:05.421Z,100444.84
2022-08-20T13:40:33.502Z,100436.03
2022-08-20T13:43:06.506Z,100436.47
2022-08-20T13:45:36.732Z,100432.25
2022-08-20T13:48:06.961Z,100433.06
2022-08-20T13:50:39.923Z,100431.41
2022-08-20T13:53:08.116Z,100437.69
2022-08-20T13:55:38.603Z,100426.13
2022-08-20T13:58:08.576Z,100429.19
2022-08-20T14:00:38.159Z,100427.41
2022-08-20T14:03:08.107Z,100423.78
2022-08-20T14:05:36.977Z,100426.09
2022-08-20T14:08:09.756Z,100415.03
2022-08-20T14:10:38.904Z,100413.94
2022-08-20T14:13:08.897Z,100416.63
2022-08-20T14:15:39.947Z,100413.44
2022-08-20T14:18:07.843Z,100413.44
2022-08-20T14:20:35.914Z,100416.63
2022-08-20T14:23:07.349Z,100420.25
2022-08-20T14:25:35.730Z,100420.13
2022-08-20T14:28:11.058Z,100424.81
2022-08-20T14:30:40.931Z,100413.94
2022-08-20T14:33:08.867Z,100417.38
2022-08-20T14:35:37.176Z,100418.25
2022-08-20T14:38:06.127Z,100413.28
2022-08-20T14:40:35.133Z,100421.72
2022-08-20T14:43:03.285Z,100425.09
2022-08-20T14:45:31.513Z,100436.91
2022-08-20T14:48:00.714Z,100460.19
2022-08-20T14:50:30.910Z,100469.12
2022-08-20T14:52:59.579Z,100464.97
2022-08-20T14:55:30.459Z,100471.72
2022-08-20T14:57:58.762Z,100467.69
2022-08-20T15:00:28.816Z,100472.31
2022-08-20T15:02:57.354Z,100467.75
2022-08-20T15:05:27.389Z,100469.22
2022-08-20T15:07:58.507Z,100462.38
2022-08-20T15:10:29.894Z,100468.28
2022-08-20T15:12:58.438Z,100458.59
2022-08-20T15:15:26.554Z,100461.78
2022-08-20T15:17:57.611Z,100456.84
2022-08-20T15:20:32.336Z,100452.41
2022-08-20T15:23:01.118Z,100450.84
2022-08-20T15:25:36.840Z,100446.25
2022-08-20T15:28:08.471Z,100442.72
2022-08-20T15:30:37.538Z,100437.28
2022-08-20T15:33:06.008Z,100432.16
2022-08-20T15:35:35.511Z,100432.16
2022-08-20T15:38:03.583Z,100437.09
2022-08-20T15:40:33.437Z,100433.22
2022-08-20T15:43:03.406Z,100432.38
2022-08-20T15:45:33.053Z,100444.53
2022-08-20T15:48:08.885Z,100433.69
2022-08-20T15:51:10.963Z,100439.81
2022-08-20T15:53:48.873Z,100428.88
2022-08-20T15:56:32.985Z,100433.84
2022-08-20T15:59:14.710Z,100432.16
2022-08-20T16:01:54.007Z,100427.94
2022-08-20T16:04:35.897Z,100437.09
2022-08-20T16:07:10.949Z,100438.41
2022-08-20T16:09:51.034Z,100442.44
2022-08-20T16:12:24.850Z,100452.28
2022-08-20T16:14:58.042Z,100457.84
2022-08-20T16:17:31.689Z,100455.16
2022-08-20T16:20:05.999Z,100457.31
2022-08-20T16:22:38.198Z,100458.03
2022-08-20T16:25:07.338Z,100459.03
2022-08-20T16:27:42.823Z,100464.13
2022-08-20T16:30:18.901Z,100462.28
2022-08-20T16:32:52.954Z,100472.22
2022-08-20T16:35:30.592Z,100476.16
2022-08-20T16:38:07.911Z,100480.38
2022-08-20T16:40:44.435Z,100485.13
2022-08-20T16:43:20.703Z,100490.75
2022-08-20T16:45:53.599Z,100487.16
2022-08-20T16:48:21.602Z,100483.09
2022-08-20T16:50:57.944Z,100472.62
2022-08-20T16:53:27.821Z,100476.38
2022-08-20T16:55:57.073Z,100473.72
2022-08-20T16:58:25.134Z,100479.69
2022-08-20T17:01:07.338Z,100472.91
2022-08-20T17:03:40.368Z,100473.44
2022-08-20T17:06:19.992Z,100474.78
2022-08-20T17:08:51.093Z,100474.44
2022-08-20T17:11:25.935Z,100476.47
2022-08-20T17:14:08.039Z,100472.91
2022-08-20T17:16:38.357Z,100472.75
2022-08-20T17:19:13.701Z,100472.91
2022-08-20T17:21:41.979Z,100469.88
2022-08-20T17:24:20.999Z,100471.06
2022-08-20T17:26:51.384Z,100480.91
2022-08-20T17:29:24.942Z,100486.31
2022-08-20T17:31:55.507Z,100483.94
2022-08-20T17:34:26.013Z,100483.94
2022-08-20T17:36:57.066Z,100488.72
2022-08-20T17:39:28.579Z,100488.41
2022-08-20T17:42:06.120Z,100481.66
2022-08-20T17:44:38.384Z,100487.06
2022-08-20T17:47:12.767Z,100496.22
2022-08-20T17:50:01.254Z,100500.78
2022-08-20T17:52:45.020Z,100501.63
2022-08-20T17:55:14.628Z,100501.81
2022-08-20T17:57:46.162Z,100507.25
2022-08-20T18:00:17.912Z,100507.94
2022-08-20T18:02:46.092Z,100510.25
2022-08-20T18:05:19.467Z,100514.63
2022-08-20T18:07:59.648Z,100516.50
2022-08-20T18:10:30.900Z,100518.87
2022-08-20T18:13:06.428Z,100514.97
2022-08-20T18:15:39.419Z,100515.31
2022-08-20T18:18:18.965Z,100508.72
2022-08-20T18:21:18.240Z,100507.19
2022-08-20T18:24:02.608Z,100509.53
2022-08-20T18:27:56.126Z,100500.94
2022-08-20T18:30:24.615Z,100506.69
2022-08-20T18:33:04.148Z,100512.09
2022-08-20T18:35:45.962Z,100515.31
2022-08-20T18:42:03.473Z,100523.84
2022-08-20T18:44:58.663Z,100522.84
2022-08-20T18:47:43.378Z,100517.78
2022-08-20T18:50:26.829Z,100517.25
2022-08-20T18:53:16.840Z,100515.56
2022-08-20T18:56:02.187Z,100515.37
2022-08-20T18:58:32.504Z,100519.31
2022-08-20T19:01:07.650Z,100524.22
2022-08-20T19:03:42.865Z,100529.81
2022-08-20T19:06:26.414Z,100526.41
2022-08-20T19:09:09.936Z,100528.97
2022-08-20T19:12:17.943Z,100528.97
2022-08-20T19:15:01.188Z,100534.88
2022-08-20T19:17:55.012Z,100533.53
2022-08-20T19:20:29.576Z,100533.38
2022-08-20T19:23:02.546Z,100523.03
2022-08-20T19:25:32.639Z,100531.16
2022-08-20T19:28:03.980Z,100530.16
2022-08-20T19:30:42.414Z,100528.09
2022-08-20T19:33:11.947Z,100529.81
2022-08-20T19:35:40.933Z,100531.00
2022-08-20T19:38:17.684Z,100526.59
2022-08-20T19:40:46.732Z,100527.63
2022-08-20T19:43:21.943Z,100538.44
2022-08-20T19:45:56.101Z,100541.50
2022-08-20T19:48:36.311Z,100537.12
2022-08-20T19:51:15.976Z,100539.63
2022-08-20T19:53:46.986Z,100543.19
2022-08-20T19:56:17.889Z,100539.47
2022-08-20T19:58:46.326Z,100542.84
2022-08-20T20:01:19.544Z,100540.97
2022-08-20T20:03:59.048Z,100538.09
2022-08-20T20:06:28.934Z,100549.44
2022-08-20T20:09:03.424Z,100549.94
2022-08-20T20:11:35.917Z,100545.53
2022-08-20T20:14:07.835Z,100542.16
2022-08-20T20:16:40.779Z,100546.06
2022-08-20T20:19:26.323Z,100544.22
2022-08-20T20:22:19.752Z,100553.19
2022-08-20T20:24:50.902Z,100554.03
2022-08-20T20:27:23.682Z,100551.66
2022-08-20T20:29:59.563Z,100557.75
2022-08-20T20:32:28.526Z,100550.81
2022-08-20T20:35:00.375Z,100556.41
2022-08-20T20:37:48.987Z,100553.53
2022-08-20T20:40:26.037Z,100550.66
2022-08-20T20:42:59.540Z,100552.34
2022-08-20T20:45:32.913Z,100546.94
2022-08-20T20:48:02.614Z,100553.72
2022-08-20T20:50:34.790Z,100541.87
2022-08-20T20:53:02.884Z,100543.91
2022-08-20T20:55:34.126Z,100538.50
2022-08-20T20:58:03.232Z,100543.91
2022-08-20T21:00:34.164Z,100537.97
2022-08-20T21:03:03.827Z,100535.09
2022-08-20T21:05:34.174Z,100534.75
2022-08-20T21:08:05.048Z,100538.81
2022-08-20T21:10:36.983Z,100548.63
2022-08-20T21:13:05.084Z,100537.97
2022-08-20T21:15:33.994Z,100537.97
2022-08-20T21:18:04.440Z,100544.72
2022-08-20T21:20:34.351Z,100549.13
2022-08-20T21:23:02.622Z,100539.13
2022-08-20T21:25:33.572Z,100540.81
2022-08-20T21:28:02.070Z,100540.81
2022-08-20T21:30:30.702Z,100549.97
2022-08-20T21:32:58.806Z,100549.97
2022-08-20T21:35:27.643Z,100545.37
2022-08-20T21:37:57.142Z,100549.97
2022-08-20T21:40:28.429Z,100551.16
2022-08-20T21:42:57.276Z,100557.75
2022-08-20T21:45:28.307Z,100542.72
2022-08-20T21:47:57.227Z,100550.97
2022-08-20T21:50:26.912Z,100545.91
2022-08-20T21:52:59.479Z,100546.75
2022-08-20T21:55:35.106Z,100550.66
2022-08-20T21:58:06.974Z,100546.09
2022-08-20T22:00:55.498Z,100550.66
2022-08-20T22:03:26.907Z,100548.13
2022-08-20T22:05:56.034Z,100543.88
2022-08-20T22:08:26.147Z,100541.00
2022-08-20T22:10:59.447Z,100545.56
2022-08-20T22:13:31.408Z,100549.94
2022-08-20T22:16:00.064Z,100548.97
2022-08-20T22:18:28.462Z,100546.94
2022-08-20T22:20:56.758Z,100540.50
2022-08-20T22:23:25.037Z,100533.22
2022-08-20T22:25:53.523Z,100537.63
2022-08-20T22:28:23.155Z,100535.75
2022-08-20T22:30:51.019Z,100530.34
2022-08-20T22:33:23.488Z,100529.50
2022-08-20T22:35:53.801Z,100531.38
2022-08-20T22:38:22.615Z,100532.06
2022-08-20T22:40:51.175Z,100524.78
2022-08-20T22:43:19.156Z,100525.78
2022-08-20T22:45:51.846Z,100523.09
2022-08-20T22:48:20.974Z,100521.75
2022-08-20T22:50:50.259Z,100524.97
2022-08-20T22:53:20.076Z,100530.38
2022-08-20T22:55:48.375Z,100527.84
2022-08-20T22:58:17.082Z,100528.00
2022-08-20T23:00:46.829Z,100524.78
2022-08-20T23:03:18.476Z,100530.19
2022-08-20T23:06:07.979Z,100538.28
2022-08-20T23:08:36.654Z,100533.72
2022-08-20T23:11:04.742Z,100529.34
2022-08-20T23:13:32.936Z,100529.69
2022-08-20T23:16:01.032Z,100526.81
2022-08-20T23:18:30.340Z,100525.13
2022-08-20T23:20:59.219Z,100522.59
2022-08-20T23:23:28.225Z,100522.91
2022-08-20T23:25:56.479Z,100524.94
2022-08-20T23:28:26.055Z,100524.44
2022-08-20T23:30:54.271Z,100522.06
2022-08-20T23:33:23.198Z,100527.63
2022-08-20T23:35:52.795Z,100521.53
2022-08-20T23:38:21.263Z,100526.94
2022-08-20T23:40:49.174Z,100533.34
2022-08-20T23:43:18.660Z,100527.41
2022-08-20T23:45:46.624Z,100525.56
2022-08-20T23:48:14.492Z,100526.28
2022-08-20T23:50:44.687Z,100526.28
2022-08-20T23:53:13.912Z,100533.66
2022-08-20T23:55:41.863Z,100525.88
2022-08-20T23:58:10.042Z,100527.59
